sensor_id;sensor_type;location;lat;lon;timestamp;pressure;altitude;pressure_sealevel;temperature;humidity
55763;BME280;42162;51.958;5.426;2023-09-19T00:00:21;100731.16;;;16.67;73.90
55763;BME280;42162;51.958;5.426;2023-09-19T00:03:00;100728.75;;;16.62;74.19
55763;BME280;42162;51.958;5.426;2023-09-19T00:05:29;100738.63;;;16.57;74.13
55763;BME280;42162;51.958;5.426;2023-09-19T00:07:57;100743.25;;;16.52;74.55
55763;BME280;42162;51.958;5.426;2023-09-19T00:10:28;100733.88;;;16.48;74.69
55763;BME280;42162;51.958;5.426;2023-09-19T00:12:58;100735.72;;;16.46;74.89
55763;BME280;42162;51.958;5.426;2023-09-19T00:15:37;100747.75;;;16.50;75.14
55763;BME280;42162;51.958;5.426;2023-09-19T00:18:05;100746.50;;;16.57;74.95
55763;BME280;42162;51.958;5.426;2023-09-19T00:20:36;100747.44;;;16.56;74.89
55763;BME280;42162;51.958;5.426;2023-09-19T00:23:04;100751.13;;;16.52;75.20
55763;BME280;42162;51.958;5.426;2023-09-19T00:25:36;100753.59;;;16.55;75.40
55763;BME280;42162;51.958;5.426;2023-09-19T00:28:07;100752.53;;;16.59;75.14
55763;BME280;42162;51.958;5.426;2023-09-19T00:30:34;100760.16;;;16.64;75.18
55763;BME280;42162;51.958;5.426;2023-09-19T00:33:02;100759.03;;;16.68;75.23
55763;BME280;42162;51.958;5.426;2023-09-19T00:35:33;100755.50;;;16.69;75.34
55763;BME280;42162;51.958;5.426;2023-09-19T00:38:00;100756.38;;;16.70;75.40
55763;BME280;42162;51.958;5.426;2023-09-19T00:40:28;100760.16;;;16.64;75.40
55763;BME280;42162;51.958;5.426;2023-09-19T00:42:58;100757.69;;;16.61;75.50
55763;BME280;42162;51.958;5.426;2023-09-19T00:45:27;100771.47;;;16.64;75.84
55763;BME280;42162;51.958;5.426;2023-09-19T00:48:01;100768.84;;;16.64;75.92
55763;BME280;42162;51.958;5.426;2023-09-19T00:50:30;100770.50;;;16.67;75.66
55763;BME280;42162;51.958;5.426;2023-09-19T00:52:59;100777.50;;;16.66;75.70
55763;BME280;42162;51.958;5.426;2023-09-19T00:55:28;100772.25;;;16.66;75.79
55763;BME280;42162;51.958;5.426;2023-09-19T00:57:56;100775.88;;;16.64;75.99
55763;BME280;42162;51.958;5.426;2023-09-19T01:00:24;100775.25;;;16.59;76.10
55763;BME280;42162;51.958;5.426;2023-09-19T01:02:51;100780.72;;;16.54;76.47
55763;BME280;42162;51.958;5.426;2023-09-19T01:05:19;100770.41;;;16.51;76.48
55763;BME280;42162;51.958;5.426;2023-09-19T01:07:46;100780.03;;;16.50;76.61
55763;BME280;42162;51.958;5.426;2023-09-19T01:10:17;100784.47;;;16.50;76.75
55763;BME280;42162;51.958;5.426;2023-09-19T01:16:01;100785.53;;;16.46;76.49
55763;BME280;42162;51.958;5.426;2023-09-19T01:18:49;100779.50;;;16.44;76.36
55763;BME280;42162;51.958;5.426;2023-09-19T01:21:43;100783.91;;;16.43;76.14
55763;BME280;42162;51.958;5.426;2023-09-19T01:27:17;100788.06;;;16.30;75.75
55763;BME280;42162;51.958;5.426;2023-09-19T01:29:49;100791.75;;;16.26;75.61
55763;BME280;42162;51.958;5.426;2023-09-19T01:32:21;100798.78;;;16.25;75.65
55763;BME280;42162;51.958;5.426;2023-09-19T01:34:54;100787.75;;;16.18;75.47
55763;BME280;42162;51.958;5.426;2023-09-19T01:37:23;100784.66;;;16.10;75.32
55763;BME280;42162;51.958;5.426;2023-09-19T01:40:23;100798.03;;;16.04;75.38
55763;BME280;42162;51.958;5.426;2023-09-19T01:42:59;100792.03;;;16.02;75.19
55763;BME280;42162;51.958;5.426;2023-09-19T01:48:25;100804.50;;;15.97;75.21
55763;BME280;42162;51.958;5.426;2023-09-19T01:51:01;100803.03;;;15.91;75.01
55763;BME280;42162;51.958;5.426;2023-09-19T01:53:43;100798.00;;;15.86;75.13
55763;BME280;42162;51.958;5.426;2023-09-19T01:56:17;100799.03;;;15.82;75.48
55763;BME280;42162;51.958;5.426;2023-09-19T01:58:52;100809.44;;;15.84;74.92
55763;BME280;42162;51.958;5.426;2023-09-19T02:01:22;100800.72;;;15.83;75.15
55763;BME280;42162;51.958;5.426;2023-09-19T02:03:51;100810.25;;;15.86;74.80
55763;BME280;42162;51.958;5.426;2023-09-19T02:06:20;100805.09;;;15.84;74.77
55763;BME280;42162;51.958;5.426;2023-09-19T02:08:48;100815.00;;;15.76;74.57
55763;BME280;42162;51.958;5.426;2023-09-19T02:11:15;100819.63;;;15.71;74.76
55763;BME280;42162;51.958;5.426;2023-09-19T02:13:43;100813.63;;;15.69;74.50
55763;BME280;42162;51.958;5.426;2023-09-19T02:16:11;100812.03;;;15.65;74.22
55763;BME280;42162;51.958;5.426;2023-09-19T02:18:39;100813.13;;;15.61;74.32
55763;BME280;42162;51.958;5.426;2023-09-19T02:21:06;100809.72;;;15.58;74.10
55763;BME280;42162;51.958;5.426;2023-09-19T02:23:33;100814.59;;;15.47;73.62
55763;BME280;42162;51.958;5.426;2023-09-19T02:26:00;100814.75;;;15.44;74.00
55763;BME280;42162;51.958;5.426;2023-09-19T02:28:27;100814.81;;;15.42;73.69
55763;BME280;42162;51.958;5.426;2023-09-19T02:30:59;100810.63;;;15.38;73.59
55763;BME280;42162;51.958;5.426;2023-09-19T02:33:26;100827.31;;;15.36;73.70
55763;BME280;42162;51.958;5.426;2023-09-19T02:35:56;100818.78;;;15.32;73.40
55763;BME280;42162;51.958;5.426;2023-09-19T02:38:27;100817.78;;;15.35;73.30
55763;BME280;42162;51.958;5.426;2023-09-19T02:40:54;100822.94;;;15.36;73.22
55763;BME280;42162;51.958;5.426;2023-09-19T02:43:22;100818.47;;;15.38;73.00
55763;BME280;42162;51.958;5.426;2023-09-19T02:45:50;100813.47;;;15.34;72.88
55763;BME280;42162;51.958;5.426;2023-09-19T02:48:17;100815.44;;;15.29;72.70
55763;BME280;42162;51.958;5.426;2023-09-19T02:50:48;100821.72;;;15.24;72.60
55763;BME280;42162;51.958;5.426;2023-09-19T02:53:16;100821.81;;;15.23;72.57
55763;BME280;42162;51.958;5.426;2023-09-19T02:55:43;100828.78;;;15.22;72.70
55763;BME280;42162;51.958;5.426;2023-09-19T02:58:10;100829.69;;;15.21;72.60
55763;BME280;42162;51.958;5.426;2023-09-19T03:00:38;100833.22;;;15.20;72.43
55763;BME280;42162;51.958;5.426;2023-09-19T03:03:05;100828.06;;;15.19;72.41
55763;BME280;42162;51.958;5.426;2023-09-19T03:05:33;100834.22;;;15.18;72.27
55763;BME280;42162;51.958;5.426;2023-09-19T03:08:00;100830.81;;;15.16;72.25
55763;BME280;42162;51.958;5.426;2023-09-19T03:10:28;100826.44;;;15.16;72.13
55763;BME280;42162;51.958;5.426;2023-09-19T03:12:57;100830.03;;;15.14;72.18
55763;BME280;42162;51.958;5.426;2023-09-19T03:15:26;100832.81;;;15.10;71.81
55763;BME280;42162;51.958;5.426;2023-09-19T03:17:54;100820.63;;;15.09;71.83
55763;BME280;42162;51.958;5.426;2023-09-19T03:20:23;100825.00;;;15.09;71.43
55763;BME280;42162;51.958;5.426;2023-09-19T03:22:50;100820.97;;;15.02;71.44
55763;BME280;42162;51.958;5.426;2023-09-19T03:25:17;100819.38;;;14.98;71.37
55763;BME280;42162;51.958;5.426;2023-09-19T03:27:48;100816.25;;;14.89;71.32
55763;BME280;42162;51.958;5.426;2023-09-19T03:30:15;100822.59;;;14.84;71.49
55763;BME280;42162;51.958;5.426;2023-09-19T03:32:44;100820.97;;;14.81;71.50
55763;BME280;42162;51.958;5.426;2023-09-19T03:35:12;100824.50;;;14.80;71.18
55763;BME280;42162;51.958;5.426;2023-09-19T03:37:41;100824.72;;;14.75;71.24
55763;BME280;42162;51.958;5.426;2023-09-19T03:40:10;100831.63;;;14.76;71.22
55763;BME280;42162;51.958;5.426;2023-09-19T03:42:39;100834.06;;;14.81;71.07
55763;BME280;42162;51.958;5.426;2023-09-19T03:45:08;100829.66;;;14.81;70.74
55763;BME280;42162;51.958;5.426;2023-09-19T03:47:44;100824.50;;;14.80;70.70
55763;BME280;42162;51.958;5.426;2023-09-19T03:50:15;100809.66;;;14.80;70.68
55763;BME280;42162;51.958;5.426;2023-09-19T03:52:45;100804.69;;;14.74;70.61
55763;BME280;42162;51.958;5.426;2023-09-19T03:55:12;100812.66;;;14.71;70.70
55763;BME280;42162;51.958;5.426;2023-09-19T03:57:40;100810.13;;;14.70;70.84
55763;BME280;42162;51.958;5.426;2023-09-19T04:00:08;100817.22;;;14.66;70.73
55763;BME280;42162;51.958;5.426;2023-09-19T04:02:41;100816.44;;;14.64;70.45
55763;BME280;42162;51.958;5.426;2023-09-19T04:05:09;100819.06;;;14.64;70.55
55763;BME280;42162;51.958;5.426;2023-09-19T04:07:37;100823.47;;;14.62;70.22
55763;BME280;42162;51.958;5.426;2023-09-19T04:10:05;100826.09;;;14.62;70.40
55763;BME280;42162;51.958;5.426;2023-09-19T04:12:32;100825.97;;;14.65;70.44
55763;BME280;42162;51.958;5.426;2023-09-19T04:15:00;100838.31;;;14.61;70.36
55763;BME280;42162;51.958;5.426;2023-09-19T04:17:29;100843.59;;;14.60;70.35
55763;BME280;42162;51.958;5.426;2023-09-19T04:19:57;100850.06;;;14.51;70.59
55763;BME280;42162;51.958;5.426;2023-09-19T04:22:24;100859.84;;;14.46;70.76
55763;BME280;42162;51.958;5.426;2023-09-19T04:24:51;100862.41;;;14.47;70.53
55763;BME280;42162;51.958;5.426;2023-09-19T04:27:18;100867.69;;;14.46;70.53
55763;BME280;42162;51.958;5.426;2023-09-19T04:29:45;100879.84;;;14.47;70.45
55763;BME280;42162;51.958;5.426;2023-09-19T04:32:12;100890.31;;;14.47;70.33
55763;BME280;42162;51.958;5.426;2023-09-19T04:34:40;100880.81;;;14.44;70.36
55763;BME280;42162;51.958;5.426;2023-09-19T04:37:07;100876.44;;;14.45;70.51
55763;BME280;42162;51.958;5.426;2023-09-19T04:39:34;100879.84;;;14.47;70.30
55763;BME280;42162;51.958;5.426;2023-09-19T04:42:01;100885.28;;;14.42;70.31
55763;BME280;42162;51.958;5.426;2023-09-19T04:44:28;100889.75;;;14.39;70.41
55763;BME280;42162;51.958;5.426;2023-09-19T04:46:55;100897.47;;;14.42;70.40
55763;BME280;42162;51.958;5.426;2023-09-19T04:49:22;100900.88;;;14.44;70.47
55763;BME280;42162;51.958;5.426;2023-09-19T04:51:49;100904.31;;;14.44;70.40
55763;BME280;42162;51.958;5.426;2023-09-19T04:54:16;100899.97;;;14.45;70.51
55763;BME280;42162;51.958;5.426;2023-09-19T04:56:45;100886.00;;;14.46;70.43
55763;BME280;42162;51.958;5.426;2023-09-19T04:59:11;100892.84;;;14.48;70.58
55763;BME280;42162;51.958;5.426;2023-09-19T05:01:38;100898.00;;;14.50;70.65
55763;BME280;42162;51.958;5.426;2023-09-19T05:04:06;100886.00;;;14.46;70.65
55763;BME280;42162;51.958;5.426;2023-09-19T05:06:33;100883.50;;;14.43;70.81
55763;BME280;42162;51.958;5.426;2023-09-19T05:09:00;100886.97;;;14.43;70.91
55763;BME280;42162;51.958;5.426;2023-09-19T05:11:27;100892.06;;;14.46;70.74
55763;BME280;42162;51.958;5.426;2023-09-19T05:13:57;100889.41;;;14.48;70.91
55763;BME280;42162;51.958;5.426;2023-09-19T05:16:24;100886.63;;;14.51;70.80
55763;BME280;42162;51.958;5.426;2023-09-19T05:18:51;100886.72;;;14.49;70.71
55763;BME280;42162;51.958;5.426;2023-09-19T05:21:19;100887.69;;;14.47;70.84
55763;BME280;42162;51.958;5.426;2023-09-19T05:23:45;100894.75;;;14.45;70.90
55763;BME280;42162;51.958;5.426;2023-09-19T05:26:13;100890.50;;;14.42;71.05
55763;BME280;42162;51.958;5.426;2023-09-19T05:28:40;100899.91;;;14.46;71.02
55763;BME280;42162;51.958;5.426;2023-09-19T05:31:07;100895.53;;;14.47;71.05
55763;BME280;42162;51.958;5.426;2023-09-19T05:33:34;100901.59;;;14.47;71.12
55763;BME280;42162;51.958;5.426;2023-09-19T05:36:01;100895.56;;;14.45;71.18
55763;BME280;42162;51.958;5.426;2023-09-19T05:38:28;100900.88;;;14.44;71.21
55763;BME280;42162;51.958;5.426;2023-09-19T05:40:55;100896.69;;;14.40;71.44
55763;BME280;42162;51.958;5.426;2023-09-19T05:43:22;100893.16;;;14.41;71.71
55763;BME280;42162;51.958;5.426;2023-09-19T05:45:49;100898.34;;;14.42;71.71
55763;BME280;42162;51.958;5.426;2023-09-19T05:48:19;100904.41;;;14.43;71.70
55763;BME280;42162;51.958;5.426;2023-09-19T05:50:48;100891.34;;;14.43;71.93
55763;BME280;42162;51.958;5.426;2023-09-19T05:53:18;100887.75;;;14.45;71.84
55763;BME280;42162;51.958;5.426;2023-09-19T05:55:45;100899.91;;;14.46;71.97
55763;BME280;42162;51.958;5.426;2023-09-19T05:58:12;100901.50;;;14.50;72.07
55763;BME280;42162;51.958;5.426;2023-09-19T06:00:41;100895.34;;;14.52;72.21
55763;BME280;42162;51.958;5.426;2023-09-19T06:03:10;100890.13;;;14.52;72.26
55763;BME280;42162;51.958;5.426;2023-09-19T06:05:40;100898.75;;;14.54;72.31
55763;BME280;42162;51.958;5.426;2023-09-19T06:08:09;100895.22;;;14.55;72.54
55763;BME280;42162;51.958;5.426;2023-09-19T06:10:37;100904.72;;;14.57;72.44
55763;BME280;42162;51.958;5.426;2023-09-19T06:13:04;100903.72;;;14.60;72.64
55763;BME280;42162;51.958;5.426;2023-09-19T06:15:32;100905.31;;;14.64;72.57
55763;BME280;42162;51.958;5.426;2023-09-19T06:18:00;100901.03;;;14.61;72.66
55763;BME280;42162;51.958;5.426;2023-09-19T06:20:29;100910.72;;;14.59;72.93
55763;BME280;42162;51.958;5.426;2023-09-19T06:22:56;100917.50;;;14.63;72.88
55763;BME280;42162;51.958;5.426;2023-09-19T06:25:23;100917.47;;;14.65;72.98
55763;BME280;42162;51.958;5.426;2023-09-19T06:27:52;100911.34;;;14.66;73.21
55763;BME280;42162;51.958;5.426;2023-09-19T06:30:24;100912.09;;;14.70;73.20
55763;BME280;42162;51.958;5.426;2023-09-19T06:32:56;100913.59;;;14.75;73.32
55763;BME280;42162;51.958;5.426;2023-09-19T06:35:24;100916.84;;;14.80;73.45
55763;BME280;42162;51.958;5.426;2023-09-19T06:37:56;100918.38;;;14.86;73.34
55763;BME280;42162;51.958;5.426;2023-09-19T06:40:25;100912.91;;;14.92;73.38
55763;BME280;42162;51.958;5.426;2023-09-19T06:42:53;100912.63;;;14.99;73.22
55763;BME280;42162;51.958;5.426;2023-09-19T06:45:20;100920.44;;;15.00;73.19
55763;BME280;42162;51.958;5.426;2023-09-19T06:47:50;100915.97;;;15.02;73.44
55763;BME280;42162;51.958;5.426;2023-09-19T06:50:19;100921.03;;;15.07;73.32
55763;BME280;42162;51.958;5.426;2023-09-19T06:52:53;100918.16;;;15.13;73.58
55763;BME280;42162;51.958;5.426;2023-09-19T06:55:22;100920.47;;;15.19;73.29
55763;BME280;42162;51.958;5.426;2023-09-19T06:57:52;100921.22;;;15.23;73.34
55763;BME280;42162;51.958;5.426;2023-09-19T07:00:21;100915.72;;;15.29;73.20
55763;BME280;42162;51.958;5.426;2023-09-19T07:02:55;100912.09;;;15.32;73.19
55763;BME280;42162;51.958;5.426;2023-09-19T07:05:23;100921.00;;;15.48;72.90
55763;BME280;42162;51.958;5.426;2023-09-19T07:07:51;100928.13;;;15.65;72.61
55763;BME280;42162;51.958;5.426;2023-09-19T07:10:18;100920.34;;;15.83;72.24
55763;BME280;42162;51.958;5.426;2023-09-19T07:12:47;100915.34;;;15.97;72.05
55763;BME280;42162;51.958;5.426;2023-09-19T07:15:14;100918.28;;;16.10;71.78
55763;BME280;42162;51.958;5.426;2023-09-19T07:17:41;100920.03;;;16.29;71.44
55763;BME280;42162;51.958;5.426;2023-09-19T07:20:08;100916.25;;;16.54;70.80
55763;BME280;42162;51.958;5.426;2023-09-19T07:22:39;100922.00;;;16.79;70.43
55763;BME280;42162;51.958;5.426;2023-09-19T07:25:07;100927.25;;;16.97;69.82
55763;BME280;42162;51.958;5.426;2023-09-19T07:27:34;100937.38;;;17.05;69.52
55763;BME280;42162;51.958;5.426;2023-09-19T07:30:04;100937.75;;;17.15;69.38
55763;BME280;42162;51.958;5.426;2023-09-19T07:32:32;100933.44;;;17.14;69.13
55763;BME280;42162;51.958;5.426;2023-09-19T07:34:59;100934.72;;;17.22;69.08
55763;BME280;42162;51.958;5.426;2023-09-19T07:37:26;100938.44;;;17.36;68.88
55763;BME280;42162;51.958;5.426;2023-09-19T07:39:53;100940.28;;;17.51;68.53
55763;BME280;42162;51.958;5.426;2023-09-19T07:42:21;100943.72;;;17.69;68.34
55763;BME280;42162;51.958;5.426;2023-09-19T07:44:48;100948.91;;;17.87;67.81
55763;BME280;42162;51.958;5.426;2023-09-19T07:47:17;100950.50;;;18.07;67.18
55763;BME280;42162;51.958;5.426;2023-09-19T07:49:47;100955.09;;;18.35;66.51
55763;BME280;42162;51.958;5.426;2023-09-19T07:52:15;100946.75;;;18.59;65.88
55763;BME280;42162;51.958;5.426;2023-09-19T07:54:44;100943.38;;;18.88;65.41
55763;BME280;42162;51.958;5.426;2023-09-19T07:57:11;100944.97;;;19.06;64.62
55763;BME280;42162;51.958;5.426;2023-09-19T07:59:38;100941.53;;;19.20;64.41
55763;BME280;42162;51.958;5.426;2023-09-19T08:02:08;100944.84;;;19.24;63.85
55763;BME280;42162;51.958;5.426;2023-09-19T08:04:43;100942.88;;;19.27;63.75
55763;BME280;42162;51.958;5.426;2023-09-19T08:07:13;100942.31;;;19.37;63.75
55763;BME280;42162;51.958;5.426;2023-09-19T08:09:40;100951.00;;;19.53;63.68
55763;BME280;42162;51.958;5.426;2023-09-19T08:12:08;100949.75;;;19.73;63.40
55763;BME280;42162;51.958;5.426;2023-09-19T08:14:37;100956.66;;;19.91;62.79
55763;BME280;42162;51.958;5.426;2023-09-19T08:17:08;100950.31;;;20.08;62.19
55763;BME280;42162;51.958;5.426;2023-09-19T08:19:35;100950.47;;;20.19;61.85
55763;BME280;42162;51.958;5.426;2023-09-19T08:22:03;100966.66;;;20.42;61.47
55763;BME280;42162;51.958;5.426;2023-09-19T08:24:30;100955.66;;;20.62;60.30
55763;BME280;42162;51.958;5.426;2023-09-19T08:26:59;100944.03;;;20.79;60.04
55763;BME280;42162;51.958;5.426;2023-09-19T08:29:27;100947.00;;;21.01;59.90
55763;BME280;42162;51.958;5.426;2023-09-19T08:31:57;100957.06;;;21.08;59.28
55763;BME280;42162;51.958;5.426;2023-09-19T08:34:25;100952.97;;;21.17;58.71
55763;BME280;42162;51.958;5.426;2023-09-19T08:36:53;100948.44;;;21.19;59.39
55763;BME280;42162;51.958;5.426;2023-09-19T08:39:26;100957.72;;;21.25;58.46
55763;BME280;42162;51.958;5.426;2023-09-19T08:41:57;100948.84;;;21.26;58.71
55763;BME280;42162;51.958;5.426;2023-09-19T08:44:26;100946.22;;;21.39;58.12
55763;BME280;42162;51.958;5.426;2023-09-19T08:47:13;100944.34;;;21.67;57.96
55763;BME280;42162;51.958;5.426;2023-09-19T08:50:00;100936.13;;;21.96;57.03
55763;BME280;42162;51.958;5.426;2023-09-19T08:52:37;100940.97;;;22.15;56.59
55763;BME280;42162;51.958;5.426;2023-09-19T08:55:12;100941.84;;;22.64;56.05
55763;BME280;42162;51.958;5.426;2023-09-19T08:57:41;100934.03;;;23.09;54.74
55763;BME280;42162;51.958;5.426;2023-09-19T09:00:13;100934.03;;;23.45;53.73
55763;BME280;42162;51.958;5.426;2023-09-19T09:02:42;100942.22;;;23.76;53.05
55763;BME280;42162;51.958;5.426;2023-09-19T09:05:10;100935.09;;;23.99;51.83
55763;BME280;42162;51.958;5.426;2023-09-19T09:07:41;100935.88;;;24.34;51.71
55763;BME280;42162;51.958;5.426;2023-09-19T09:10:13;100940.88;;;23.93;51.95
55763;BME280;42162;51.958;5.426;2023-09-19T09:12:41;100935.28;;;22.81;52.67
55763;BME280;42162;51.958;5.426;2023-09-19T09:15:13;100946.13;;;22.16;54.52
55763;BME280;42162;51.958;5.426;2023-09-19T09:17:43;100949.06;;;21.87;54.93
55763;BME280;42162;51.958;5.426;2023-09-19T09:20:13;100944.53;;;21.51;55.43
55763;BME280;42162;51.958;5.426;2023-09-19T09:22:53;100946.09;;;21.27;55.36
55763;BME280;42162;51.958;5.426;2023-09-19T09:25:22;100931.28;;;21.12;56.18
55763;BME280;42162;51.958;5.426;2023-09-19T09:28:01;100930.88;;;21.18;55.93
55763;BME280;42162;51.958;5.426;2023-09-19T09:30:35;100929.72;;;22.24;54.83
55763;BME280;42162;51.958;5.426;2023-09-19T09:33:08;100930.50;;;23.33;53.10
55763;BME280;42162;51.958;5.426;2023-09-19T09:38:23;100926.94;;;24.68;50.33
55763;BME280;42162;51.958;5.426;2023-09-19T09:41:00;100933.53;;;25.06;49.04
55763;BME280;42162;51.958;5.426;2023-09-19T09:43:38;100922.38;;;24.70;49.67
55763;BME280;42162;51.958;5.426;2023-09-19T09:48:57;100934.91;;;23.10;52.31
55763;BME280;42162;51.958;5.426;2023-09-19T09:51:44;100934.72;;;22.40;53.38
55763;BME280;42162;51.958;5.426;2023-09-19T09:54:17;100916.88;;;21.94;53.90
55763;BME280;42162;51.958;5.426;2023-09-19T09:59:54;100914.41;;;21.66;54.93
55763;BME280;42162;51.958;5.426;2023-09-19T10:02:27;100924.09;;;21.53;54.80
55763;BME280;42162;51.958;5.426;2023-09-19T10:05:16;100917.16;;;21.39;55.62
55763;BME280;42162;51.958;5.426;2023-09-19T10:07:55;100894.97;;;21.29;55.24
55763;BME280;42162;51.958;5.426;2023-09-19T10:10:37;100898.75;;;21.11;55.71
55763;BME280;42162;51.958;5.426;2023-09-19T10:13:14;100936.25;;;21.04;55.76
55763;BME280;42162;51.958;5.426;2023-09-19T10:15:48;100931.47;;;20.83;55.63
55763;BME280;42162;51.958;5.426;2023-09-19T10:18:25;100922.34;;;20.74;56.18
55763;BME280;42162;51.958;5.426;2023-09-19T10:20:53;100921.78;;;20.69;56.60
55763;BME280;42162;51.958;5.426;2023-09-19T10:23:22;100921.69;;;20.71;56.92
55763;BME280;42162;51.958;5.426;2023-09-19T10:25:51;100913.22;;;20.65;56.48
55763;BME280;42162;51.958;5.426;2023-09-19T10:28:20;100902.13;;;20.60;57.18
55763;BME280;42162;51.958;5.426;2023-09-19T10:30:51;100911.00;;;20.59;56.94
55763;BME280;42162;51.958;5.426;2023-09-19T10:33:21;100917.31;;;20.57;57.00
55763;BME280;42162;51.958;5.426;2023-09-19T10:35:50;100921.50;;;20.46;56.85
55763;BME280;42162;51.958;5.426;2023-09-19T10:38:25;100897.03;;;20.44;57.27
55763;BME280;42162;51.958;5.426;2023-09-19T10:40:53;100899.66;;;20.44;57.31
55763;BME280;42162;51.958;5.426;2023-09-19T10:43:25;100894.56;;;20.41;57.57
55763;BME280;42162;51.958;5.426;2023-09-19T10:45:53;100896.06;;;20.45;57.96
55763;BME280;42162;51.958;5.426;2023-09-19T10:48:23;100887.41;;;20.43;57.59
55763;BME280;42162;51.958;5.426;2023-09-19T10:51:21;100884.13;;;20.40;58.03
55763;BME280;42162;51.958;5.426;2023-09-19T10:53:57;100869.44;;;20.35;57.54
55763;BME280;42162;51.958;5.426;2023-09-19T10:56:32;100863.41;;;20.33;57.71
55763;BME280;42162;51.958;5.426;2023-09-19T10:59:08;100880.84;;;20.36;58.14
55763;BME280;42162;51.958;5.426;2023-09-19T11:01:54;100884.81;;;20.29;57.68
55763;BME280;42162;51.958;5.426;2023-09-19T11:04:34;100875.50;;;20.23;57.90
55763;BME280;42162;51.958;5.426;2023-09-19T11:07:10;100868.53;;;20.22;57.87
55763;BME280;42162;51.958;5.426;2023-09-19T11:09:44;100863.09;;;20.25;57.82
55763;BME280;42162;51.958;5.426;2023-09-19T11:27:09;100843.19;;;20.07;56.81
55763;BME280;42162;51.958;5.426;2023-09-19T11:29:37;100847.72;;;20.04;57.37
55763;BME280;42162;51.958;5.426;2023-09-19T11:32:06;100839.41;;;20.11;57.45
55763;BME280;42162;51.958;5.426;2023-09-19T11:39:38;100849.47;;;20.31;57.38
55763;BME280;42162;51.958;5.426;2023-09-19T11:42:43;100837.28;;;20.30;56.99
55763;BME280;42162;51.958;5.426;2023-09-19T11:48:08;100823.63;;;20.24;57.30
55763;BME280;42162;51.958;5.426;2023-09-19T11:50:36;100827.75;;;20.28;57.45
55763;BME280;42162;51.958;5.426;2023-09-19T11:53:13;100816.16;;;20.30;56.83
55763;BME280;42162;51.958;5.426;2023-09-19T11:55:44;100818.88;;;20.29;56.86
55763;BME280;42162;51.958;5.426;2023-09-19T11:58:15;100825.31;;;20.25;56.80
55763;BME280;42162;51.958;5.426;2023-09-19T12:00:44;100814.88;;;20.23;56.81
55763;BME280;42162;51.958;5.426;2023-09-19T12:03:15;100825.31;;;20.25;57.41
55763;BME280;42162;51.958;5.426;2023-09-19T12:05:45;100825.03;;;20.29;56.74
55763;BME280;42162;51.958;5.426;2023-09-19T12:08:14;100838.94;;;20.31;56.33
55763;BME280;42162;51.958;5.426;2023-09-19T12:10:48;100829.56;;;20.27;56.55
55763;BME280;42162;51.958;5.426;2023-09-19T12:13:19;100828.06;;;20.23;56.54
55763;BME280;42162;51.958;5.426;2023-09-19T12:15:47;100834.25;;;20.22;56.88
55763;BME280;42162;51.958;5.426;2023-09-19T12:18:30;100842.47;;;20.17;57.00
55763;BME280;42162;51.958;5.426;2023-09-19T12:20:57;100843.53;;;20.15;57.03
55763;BME280;42162;51.958;5.426;2023-09-19T12:23:27;100844.59;;;20.12;56.48
55763;BME280;42162;51.958;5.426;2023-09-19T12:25:54;100834.31;;;20.08;56.60
55763;BME280;42162;51.958;5.426;2023-09-19T12:28:26;100849.72;;;20.01;57.30
55763;BME280;42162;51.958;5.426;2023-09-19T12:30:54;100832.38;;;19.97;57.35
55763;BME280;42162;51.958;5.426;2023-09-19T12:33:22;100837.78;;;19.95;57.37
55763;BME280;42162;51.958;5.426;2023-09-19T12:35:52;100828.81;;;19.98;57.79
55763;BME280;42162;51.958;5.426;2023-09-19T12:38:26;100829.94;;;19.94;57.65
55763;BME280;42162;51.958;5.426;2023-09-19T12:41:02;100827.41;;;19.92;57.70
55763;BME280;42162;51.958;5.426;2023-09-19T12:43:30;100832.03;;;19.88;58.13
55763;BME280;42162;51.958;5.426;2023-09-19T12:46:00;100834.06;;;19.83;58.16
55763;BME280;42162;51.958;5.426;2023-09-19T12:48:27;100836.91;;;19.80;58.24
55763;BME280;42162;51.958;5.426;2023-09-19T12:53:27;100818.75;;;19.76;58.30
55763;BME280;42162;51.958;5.426;2023-09-19T12:56:00;100827.88;;;19.70;58.63
55763;BME280;42162;51.958;5.426;2023-09-19T12:58:28;100824.25;;;19.72;58.67
55763;BME280;42162;51.958;5.426;2023-09-19T13:00:57;100829.50;;;19.72;59.05
55763;BME280;42162;51.958;5.426;2023-09-19T13:05:58;100823.56;;;19.69;58.73
55763;BME280;42162;51.958;5.426;2023-09-19T13:08:29;100836.09;;;19.65;59.22
55763;BME280;42162;51.958;5.426;2023-09-19T13:13:41;100839.94;;;19.60;59.21
55763;BME280;42162;51.958;5.426;2023-09-19T13:16:12;100854.16;;;19.57;59.27
55763;BME280;42162;51.958;5.426;2023-09-19T13:18:51;100843.00;;;19.53;59.11
55763;BME280;42162;51.958;5.426;2023-09-19T13:21:32;100844.88;;;19.51;59.40
55763;BME280;42162;51.958;5.426;2023-09-19T13:24:23;100843.06;;;19.52;59.48
55763;BME280;42162;51.958;5.426;2023-09-19T13:26:54;100837.91;;;19.50;59.77
55763;BME280;42162;51.958;5.426;2023-09-19T13:29:22;100837.91;;;19.50;59.48
55763;BME280;42162;51.958;5.426;2023-09-19T13:31:50;100833.47;;;19.51;59.48
55763;BME280;42162;51.958;5.426;2023-09-19T13:34:18;100844.00;;;19.51;59.83
55763;BME280;42162;51.958;5.426;2023-09-19T13:36:46;100827.19;;;19.53;59.97
55763;BME280;42162;51.958;5.426;2023-09-19T13:39:16;100839.19;;;19.57;59.79
55763;BME280;42162;51.958;5.426;2023-09-19T13:41:44;100831.28;;;19.57;59.83
55763;BME280;42162;51.958;5.426;2023-09-19T13:44:14;100838.72;;;19.65;60.20
55763;BME280;42162;51.958;5.426;2023-09-19T13:46:41;100832.31;;;19.69;60.10
55763;BME280;42162;51.958;5.426;2023-09-19T13:49:13;100830.16;;;19.76;59.93
55763;BME280;42162;51.958;5.426;2023-09-19T13:51:40;100830.50;;;19.84;59.59
55763;BME280;42162;51.958;5.426;2023-09-19T13:54:11;100839.00;;;19.90;59.95